PWSweather.com
Personal Weather Stations
Station Observations
SBERGENWX
Wood Ridge, NJ 07075

Wood Ridge, NJ 07075

Lat: 40.851667, Lon: -74.088131

Elevation: 177

Station Type: Davis Vantage Vue

http://201weather.com/

High Low Average
Temperature 84.9°F29.4°C 61.8°F16.6°C 73.5°F23.1°C
Dew Point 62.6°F17.0°C 50.2°F10.1°C 54.1°F12.3°C
Winds 3.5 mph 5.6 kmh Calm Calm 1.0 mph SE1.6 kmh SE
Wind Gusts 5.8 mph9.3 kmh -- 2.0 mph3.2 kmh
Humidity 75% 31% 53%
Pressure 30.13 in1020.3 mb 29.99 in1015.6 mb -
Precipitation 0.02 in0.5 mm - -
Hour Temp Dew Point Humidity Winds Wind Gusts Pressure Precip Precip Rate Daily Precip Total
12:00 AM 70.2°F21.2°C 54.7°F12.6°C 58% Calm Calm -- 29.98 in1015.2 mb - 0.00 in0.0 mm 0.00 in0.0 mm
12:15 AM 69.7°F20.9°C 54.3°F12.4°C 58% Calm Calm 2.3 mph3.7 kmh 29.98 in1015.2 mb - 0.00 in0.0 mm 0.00 in0.0 mm
12:30 AM 69.9°F21.1°C 53.0°F11.7°C 55% Calm Calm 1.2 mph1.9 kmh 29.99 in1015.6 mb - 0.00 in0.0 mm 0.00 in0.0 mm
12:45 AM 69.7°F20.9°C 52.8°F11.6°C 55% 1.2 mph NNE1.9 kmh NNE 2.3 mph3.7 kmh 29.99 in1015.6 mb - 0.00 in0.0 mm 0.00 in0.0 mm
01:00 AM 69.2°F20.7°C 52.8°F11.6°C 56% 1.2 mph NNE1.9 kmh NNE 3.5 mph5.6 kmh 29.99 in1015.6 mb - 0.00 in0.0 mm 0.00 in0.0 mm
01:15 AM 68.4°F20.2°C 53.0°F11.7°C 58% Calm Calm -- 30.00 in1015.9 mb - 0.00 in0.0 mm 0.00 in0.0 mm
01:30 AM 67.9°F19.9°C 53.1°F11.7°C 59% 1.2 mph NNE1.9 kmh NNE 3.5 mph5.6 kmh 30.00 in1015.9 mb - 0.00 in0.0 mm 0.00 in0.0 mm
01:45 AM 67.4°F19.7°C 53.1°F11.7°C 60% Calm Calm 1.2 mph1.9 kmh 30.00 in1015.9 mb - 0.00 in0.0 mm 0.00 in0.0 mm
02:00 AM 66.8°F19.3°C 53.4°F11.9°C 62% Calm Calm 1.2 mph1.9 kmh 30.00 in1015.9 mb - 0.00 in0.0 mm 0.00 in0.0 mm
02:15 AM 66.3°F19.1°C 54.2°F12.3°C 65% Calm Calm -- 30.01 in1016.3 mb - 0.00 in0.0 mm 0.00 in0.0 mm
02:30 AM 65.4°F18.6°C 53.7°F12.1°C 66% Calm Calm -- 30.01 in1016.3 mb - 0.00 in0.0 mm 0.00 in0.0 mm
02:45 AM 65.3°F18.5°C 53.2°F11.8°C 65% Calm Calm -- 30.01 in1016.3 mb - 0.00 in0.0 mm 0.00 in0.0 mm
03:00 AM 65.5°F18.6°C 53.0°F11.7°C 64% Calm Calm -- 30.01 in1016.3 mb - 0.00 in0.0 mm 0.00 in0.0 mm
03:15 AM 65.4°F18.6°C 52.5°F11.4°C 63% Calm Calm 1.2 mph1.9 kmh 30.01 in1016.3 mb - 0.00 in0.0 mm 0.00 in0.0 mm
03:30 AM 65.0°F18.3°C 52.5°F11.4°C 64% Calm Calm -- 30.02 in1016.6 mb - 0.00 in0.0 mm 0.00 in0.0 mm
03:45 AM 64.5°F18.1°C 52.5°F11.4°C 65% Calm Calm -- 30.02 in1016.6 mb - 0.00 in0.0 mm 0.00 in0.0 mm
04:00 AM 64.0°F17.8°C 52.4°F11.3°C 66% Calm Calm 1.2 mph1.9 kmh 30.02 in1016.6 mb - 0.00 in0.0 mm 0.00 in0.0 mm
04:15 AM 64.3°F17.9°C 52.3°F11.3°C 65% Calm Calm 1.2 mph1.9 kmh 30.02 in1016.6 mb - 0.00 in0.0 mm 0.00 in0.0 mm
04:30 AM 63.8°F17.7°C 53.0°F11.7°C 68% Calm Calm -- 30.03 in1016.9 mb - 0.00 in0.0 mm 0.00 in0.0 mm
04:45 AM 63.2°F17.3°C 52.9°F11.6°C 69% Calm Calm -- 30.03 in1016.9 mb - 0.00 in0.0 mm 0.00 in0.0 mm
05:00 AM 62.7°F17.1°C 53.2°F11.8°C 71% Calm Calm -- 30.04 in1017.3 mb - 0.00 in0.0 mm 0.00 in0.0 mm
05:15 AM 62.2°F16.8°C 53.4°F11.9°C 73% Calm Calm -- 30.04 in1017.3 mb - 0.00 in0.0 mm 0.00 in0.0 mm
05:30 AM 61.8°F16.6°C 53.4°F11.9°C 74% Calm Calm -- 30.05 in1017.6 mb - 0.00 in0.0 mm 0.00 in0.0 mm
05:45 AM 62.0°F16.7°C 53.2°F11.8°C 73% Calm Calm -- 30.05 in1017.6 mb - 0.00 in0.0 mm 0.00 in0.0 mm
06:00 AM 62.2°F16.8°C 53.1°F11.7°C 72% Calm Calm 1.2 mph1.9 kmh 30.06 in1017.9 mb - 0.00 in0.0 mm 0.00 in0.0 mm
06:15 AM 62.6°F17.0°C 53.0°F11.7°C 71% Calm Calm -- 30.06 in1017.9 mb - 0.00 in0.0 mm 0.00 in0.0 mm
06:30 AM 62.8°F17.1°C 53.3°F11.8°C 71% Calm Calm -- 30.06 in1017.9 mb - 0.00 in0.0 mm 0.00 in0.0 mm
06:45 AM 63.3°F17.4°C 53.4°F11.9°C 70% 1.2 mph NNE1.9 kmh NNE 2.3 mph3.7 kmh 30.06 in1017.9 mb - 0.00 in0.0 mm 0.00 in0.0 mm
07:00 AM 63.9°F17.7°C 53.9°F12.2°C 70% 1.2 mph NNE1.9 kmh NNE 3.5 mph5.6 kmh 30.06 in1017.9 mb - 0.00 in0.0 mm 0.00 in0.0 mm
07:15 AM 64.4°F18.0°C 54.4°F12.4°C 70% 2.3 mph NNE3.7 kmh NNE 3.5 mph5.6 kmh 30.07 in1018.3 mb - 0.00 in0.0 mm 0.00 in0.0 mm
07:30 AM 65.2°F18.4°C 54.4°F12.4°C 68% 1.2 mph NNE1.9 kmh NNE 2.3 mph3.7 kmh 30.07 in1018.3 mb - 0.00 in0.0 mm 0.00 in0.0 mm
07:45 AM 66.4°F19.1°C 55.1°F12.8°C 67% 2.3 mph NE3.7 kmh NE 5.8 mph9.3 kmh 30.08 in1018.6 mb - 0.00 in0.0 mm 0.00 in0.0 mm
08:00 AM 67.4°F19.7°C 54.8°F12.7°C 64% 2.3 mph NE3.7 kmh NE 3.5 mph5.6 kmh 30.08 in1018.6 mb - 0.00 in0.0 mm 0.00 in0.0 mm
08:15 AM 68.6°F20.3°C 53.7°F12.1°C 59% Calm Calm -- 30.08 in1018.6 mb - 0.00 in0.0 mm 0.00 in0.0 mm
08:30 AM 69.8°F21.0°C 54.4°F12.4°C 58% Calm Calm -- 30.08 in1018.6 mb - 0.00 in0.0 mm 0.00 in0.0 mm
08:45 AM 70.5°F21.4°C 53.1°F11.7°C 54% Calm Calm -- 30.09 in1019.0 mb - 0.00 in0.0 mm 0.00 in0.0 mm
09:00 AM 71.1°F21.7°C 53.6°F12.0°C 54% Calm Calm -- 30.09 in1019.0 mb - 0.00 in0.0 mm 0.00 in0.0 mm
09:15 AM 71.6°F22.0°C 52.5°F11.4°C 51% Calm Calm -- 30.10 in1019.3 mb - 0.00 in0.0 mm 0.00 in0.0 mm
09:30 AM 72.7°F22.6°C 53.5°F11.9°C 51% Calm Calm -- 30.10 in1019.3 mb - 0.00 in0.0 mm 0.00 in0.0 mm
09:45 AM 73.3°F22.9°C 53.0°F11.7°C 49% Calm Calm -- 30.10 in1019.3 mb - 0.00 in0.0 mm 0.00 in0.0 mm
10:00 AM 74.1°F23.4°C 54.8°F12.7°C 51% Calm Calm -- 30.09 in1019.0 mb - 0.00 in0.0 mm 0.00 in0.0 mm
10:15 AM 75.1°F23.9°C 51.7°F10.9°C 44% Calm Calm -- 30.10 in1019.3 mb - 0.00 in0.0 mm 0.00 in0.0 mm
10:30 AM 76.1°F24.5°C 54.4°F12.4°C 47% Calm Calm -- 30.10 in1019.3 mb - 0.01 in0.3 mm 0.01 in0.3 mm
10:45 AM 76.5°F24.7°C 51.0°F10.6°C 41% Calm Calm -- 30.10 in1019.3 mb - 0.01 in0.3 mm 0.01 in0.3 mm
11:00 AM 76.6°F24.8°C 50.5°F10.3°C 40% Calm Calm -- 30.11 in1019.6 mb - 0.02 in0.5 mm 0.02 in0.5 mm
11:15 AM 77.7°F25.4°C 50.7°F10.4°C 39% Calm Calm -- 30.11 in1019.6 mb - 0.02 in0.5 mm 0.02 in0.5 mm
11:30 AM 78.8°F26.0°C 51.7°F10.9°C 39% Calm Calm -- 30.11 in1019.6 mb - 0.01 in0.3 mm 0.02 in0.5 mm
11:45 AM 78.8°F26.0°C 51.7°F10.9°C 39% Calm Calm -- 30.10 in1019.3 mb - 0.01 in0.3 mm 0.02 in0.5 mm
12:00 PM 78.6°F25.9°C 50.2°F10.1°C 37% Calm Calm -- 30.10 in1019.3 mb - 0.00 in0.0 mm 0.02 in0.5 mm
12:15 PM 79.0°F26.1°C 52.0°F11.1°C 39% Calm Calm -- 30.10 in1019.3 mb - 0.00 in0.0 mm 0.02 in0.5 mm
12:30 PM 79.8°F26.6°C 51.9°F11.1°C 38% Calm Calm -- 30.09 in1019.0 mb - 0.00 in0.0 mm 0.02 in0.5 mm
12:45 PM 80.3°F26.8°C 51.7°F10.9°C 37% Calm Calm -- 30.09 in1019.0 mb - 0.00 in0.0 mm 0.02 in0.5 mm
01:00 PM 80.3°F26.8°C 50.9°F10.5°C 36% Calm Calm -- 30.09 in1019.0 mb - 0.00 in0.0 mm 0.02 in0.5 mm
01:15 PM 81.2°F27.3°C 52.4°F11.3°C 37% Calm Calm -- 30.09 in1019.0 mb - 0.00 in0.0 mm 0.02 in0.5 mm
01:30 PM 80.7°F27.1°C 50.5°F10.3°C 35% Calm Calm -- 30.08 in1018.6 mb - 0.00 in0.0 mm 0.02 in0.5 mm
01:45 PM 81.2°F27.3°C 51.7°F10.9°C 36% Calm Calm -- 30.08 in1018.6 mb - 0.00 in0.0 mm 0.02 in0.5 mm
02:00 PM 81.0°F27.2°C 51.5°F10.8°C 36% Calm Calm -- 30.08 in1018.6 mb - 0.00 in0.0 mm 0.02 in0.5 mm
02:15 PM 81.3°F27.4°C 51.8°F11.0°C 36% Calm Calm -- 30.08 in1018.6 mb - 0.00 in0.0 mm 0.02 in0.5 mm
02:30 PM 82.4°F28.0°C 52.0°F11.1°C 35% Calm Calm -- 30.07 in1018.3 mb - 0.00 in0.0 mm 0.02 in0.5 mm
02:45 PM 82.4°F28.0°C 51.2°F10.7°C 34% 3.5 mph SE5.6 kmh SE 5.8 mph9.3 kmh 30.07 in1018.3 mb - 0.00 in0.0 mm 0.02 in0.5 mm
03:00 PM 82.2°F27.9°C 51.8°F11.0°C 35% 1.2 mph NE1.9 kmh NE 3.5 mph5.6 kmh 30.07 in1018.3 mb - 0.00 in0.0 mm 0.02 in0.5 mm
03:15 PM 82.0°F27.8°C 50.9°F10.5°C 34% Calm Calm -- 30.06 in1017.9 mb - 0.00 in0.0 mm 0.02 in0.5 mm
03:30 PM 82.7°F28.2°C 50.7°F10.4°C 33% 1.2 mph NE1.9 kmh NE 1.2 mph1.9 kmh 30.06 in1017.9 mb - 0.00 in0.0 mm 0.02 in0.5 mm
03:45 PM 83.2°F28.4°C 51.9°F11.1°C 34% Calm Calm 1.2 mph1.9 kmh 30.06 in1017.9 mb - 0.00 in0.0 mm 0.02 in0.5 mm
04:00 PM 84.9°F29.4°C 50.8°F10.4°C 31% 2.3 mph W3.7 kmh W 3.5 mph5.6 kmh 30.05 in1017.6 mb - 0.00 in0.0 mm 0.02 in0.5 mm
04:15 PM 84.3°F29.1°C 50.4°F10.2°C 31% 1.2 mph SE1.9 kmh SE 2.3 mph3.7 kmh 30.05 in1017.6 mb - 0.00 in0.0 mm 0.02 in0.5 mm
04:30 PM 84.2°F29.0°C 52.0°F11.1°C 33% Calm Calm -- 30.05 in1017.6 mb - 0.00 in0.0 mm 0.02 in0.5 mm
04:45 PM 84.8°F29.3°C 52.5°F11.4°C 33% 2.3 mph SSW3.7 kmh SSW 3.5 mph5.6 kmh 30.05 in1017.6 mb - 0.00 in0.0 mm 0.02 in0.5 mm
05:00 PM 83.5°F28.6°C 53.7°F12.1°C 36% 1.2 mph SSW1.9 kmh SSW 2.3 mph3.7 kmh 30.05 in1017.6 mb - 0.00 in0.0 mm 0.02 in0.5 mm
05:15 PM 83.2°F28.4°C 51.9°F11.1°C 34% 1.2 mph SSW1.9 kmh SSW 3.5 mph5.6 kmh 30.05 in1017.6 mb - 0.00 in0.0 mm 0.02 in0.5 mm
05:30 PM 83.6°F28.7°C 53.1°F11.7°C 35% 3.5 mph SSW5.6 kmh SSW 3.5 mph5.6 kmh 30.05 in1017.6 mb - 0.00 in0.0 mm 0.02 in0.5 mm
05:45 PM 83.4°F28.6°C 53.6°F12.0°C 36% 2.3 mph SSW3.7 kmh SSW 3.5 mph5.6 kmh 30.05 in1017.6 mb - 0.00 in0.0 mm 0.02 in0.5 mm
06:00 PM 83.0°F28.3°C 53.3°F11.8°C 36% 2.3 mph S3.7 kmh S 4.6 mph7.4 kmh 30.05 in1017.6 mb - 0.00 in0.0 mm 0.02 in0.5 mm
06:15 PM 82.8°F28.2°C 54.6°F12.6°C 38% 1.2 mph SW1.9 kmh SW 3.5 mph5.6 kmh 30.06 in1017.9 mb - 0.00 in0.0 mm 0.02 in0.5 mm
06:30 PM 82.5°F28.1°C 54.3°F12.4°C 38% 2.3 mph SW3.7 kmh SW 5.8 mph9.3 kmh 30.06 in1017.9 mb - 0.00 in0.0 mm 0.02 in0.5 mm
06:45 PM 82.0°F27.8°C 54.6°F12.6°C 39% 3.5 mph SSW5.6 kmh SSW 3.5 mph5.6 kmh 30.06 in1017.9 mb - 0.00 in0.0 mm 0.02 in0.5 mm
07:00 PM 80.8°F27.1°C 54.2°F12.3°C 40% 3.5 mph SSW5.6 kmh SSW 3.5 mph5.6 kmh 30.06 in1017.9 mb - 0.00 in0.0 mm 0.02 in0.5 mm
07:15 PM 79.6°F26.4°C 56.3°F13.5°C 45% 2.3 mph SW3.7 kmh SW 3.5 mph5.6 kmh 30.06 in1017.9 mb - 0.00 in0.0 mm 0.02 in0.5 mm
07:30 PM 78.2°F25.7°C 55.2°F12.9°C 45% 3.5 mph SSW5.6 kmh SSW 4.6 mph7.4 kmh 30.06 in1017.9 mb - 0.00 in0.0 mm 0.02 in0.5 mm
07:45 PM 77.3°F25.2°C 54.9°F12.7°C 46% 3.5 mph SSW5.6 kmh SSW 3.5 mph5.6 kmh 30.06 in1017.9 mb - 0.00 in0.0 mm 0.02 in0.5 mm
08:00 PM 76.4°F24.7°C 55.2°F12.9°C 48% 2.3 mph SSW3.7 kmh SSW 4.6 mph7.4 kmh 30.06 in1017.9 mb - 0.00 in0.0 mm 0.02 in0.5 mm
08:15 PM 75.7°F24.3°C 55.2°F12.9°C 49% 1.2 mph SSW1.9 kmh SSW 1.2 mph1.9 kmh 30.06 in1017.9 mb - 0.00 in0.0 mm 0.02 in0.5 mm
08:30 PM 75.2°F24.0°C 55.8°F13.2°C 51% 1.2 mph S1.9 kmh S 3.5 mph5.6 kmh 30.07 in1018.3 mb - 0.00 in0.0 mm 0.02 in0.5 mm
08:45 PM 74.6°F23.7°C 56.9°F13.8°C 54% 2.3 mph SSW3.7 kmh SSW 3.5 mph5.6 kmh 30.07 in1018.3 mb - 0.00 in0.0 mm 0.02 in0.5 mm
09:00 PM 74.0°F23.3°C 57.8°F14.3°C 57% 2.3 mph S3.7 kmh S 3.5 mph5.6 kmh 30.08 in1018.6 mb - 0.00 in0.0 mm 0.02 in0.5 mm
09:15 PM 73.7°F23.2°C 56.0°F13.3°C 54% 2.3 mph SSW3.7 kmh SSW 2.3 mph3.7 kmh 30.09 in1019.0 mb - 0.00 in0.0 mm 0.02 in0.5 mm
09:30 PM 73.3°F22.9°C 55.7°F13.2°C 54% Calm Calm 3.5 mph5.6 kmh 30.09 in1019.0 mb - 0.00 in0.0 mm 0.02 in0.5 mm
09:45 PM 72.9°F22.7°C 56.3°F13.5°C 56% 1.2 mph S1.9 kmh S 3.5 mph5.6 kmh 30.10 in1019.3 mb - 0.00 in0.0 mm 0.02 in0.5 mm
10:00 PM 72.6°F22.6°C 57.0°F13.9°C 58% Calm Calm 2.3 mph3.7 kmh 30.11 in1019.6 mb - 0.00 in0.0 mm 0.02 in0.5 mm
10:15 PM 72.4°F22.4°C 57.7°F14.3°C 60% Calm Calm 1.2 mph1.9 kmh 30.11 in1019.6 mb - 0.00 in0.0 mm 0.02 in0.5 mm
10:30 PM 72.1°F22.3°C 58.8°F14.9°C 63% 1.2 mph SSW1.9 kmh SSW 2.3 mph3.7 kmh 30.10 in1019.3 mb - 0.00 in0.0 mm 0.02 in0.5 mm
10:45 PM 71.9°F22.2°C 59.9°F15.5°C 66% Calm Calm 1.2 mph1.9 kmh 30.11 in1019.6 mb - 0.00 in0.0 mm 0.02 in0.5 mm
11:00 PM 71.6°F22.0°C 61.7°F16.5°C 71% 1.2 mph SW1.9 kmh SW 1.2 mph1.9 kmh 30.11 in1019.6 mb - 0.00 in0.0 mm 0.02 in0.5 mm
11:15 PM 71.3°F21.8°C 62.6°F17.0°C 74% 1.2 mph SSW1.9 kmh SSW 2.3 mph3.7 kmh 30.11 in1019.6 mb - 0.00 in0.0 mm 0.02 in0.5 mm
11:30 PM 71.0°F21.7°C 62.3°F16.8°C 74% 1.2 mph SSW1.9 kmh SSW 3.5 mph5.6 kmh 30.11 in1019.6 mb - 0.00 in0.0 mm 0.02 in0.5 mm
11:45 PM 71.0°F21.7°C 61.1°F16.2°C 71% 1.2 mph SW1.9 kmh SW 3.5 mph5.6 kmh 30.12 in1020.0 mb - 0.00 in0.0 mm 0.02 in0.5 mm